Time;durP1;ratioP1;P1;durP2;ratioP2;P2;SDS_P1;SDS_P2;PMS_P1;PMS_P2;Temp;Humidity;BMP_temperature;BMP_pressure;BME280_temperature;BME280_humidity;BME280_pressure;Samples;Min_cycle;Max_cycle;Signal;HPM_P1;HPM_P2
2022/10/18 00:02:19;;;;;;;25.23;6.50;;;16.40;99.90;;;;;;5097830;28;20456;-75
2022/10/18 00:04:46;;;;;;;13.27;6.27;;;16.40;99.90;;;;;;5114447;28;20447;-73
2022/10/18 00:07:13;;;;;;;17.90;7.10;;;16.40;99.90;;;;;;5113255;28;20425;-74
2022/10/18 00:09:41;;;;;;;20.03;6.73;;;16.40;99.90;;;;;;5114489;28;20443;-74
2022/10/18 00:12:07;;;;;;;17.87;7.23;;;16.50;99.90;;;;;;5113631;28;20449;-74
2022/10/18 00:14:34;;;;;;;12.93;6.80;;;16.50;99.90;;;;;;5103841;28;20455;-74
2022/10/18 00:17:01;;;;;;;24.13;7.67;;;16.50;99.90;;;;;;5094380;28;20485;-73
2022/10/18 00:19:27;;;;;;;13.03;7.23;;;16.50;99.90;;;;;;5094946;28;20433;-73
2022/10/18 00:21:54;;;;;;;23.13;7.73;;;16.40;99.90;;;;;;5112947;28;20829;-72
2022/10/18 00:24:21;;;;;;;13.80;7.50;;;16.40;99.90;;;;;;5106659;28;20501;-74
2022/10/18 00:26:49;;;;;;;16.47;7.50;;;16.50;99.90;;;;;;5104479;28;20432;-73
2022/10/18 00:29:17;;;;;;;23.60;7.93;;;16.50;99.90;;;;;;5094013;28;20481;-73
2022/10/18 00:31:44;;;;;;;33.90;9.20;;;16.50;99.90;;;;;;5093845;28;20849;-73
2022/10/18 00:34:13;;;;;;;28.17;8.03;;;16.50;99.90;;;;;;5100221;28;20474;-71
2022/10/18 00:36:40;;;;;;;22.20;8.80;;;16.40;99.90;;;;;;5106146;28;20451;-71
2022/10/18 00:39:09;;;;;;;17.03;7.60;;;16.40;99.90;;;;;;5095044;28;20454;-71
2022/10/18 00:41:37;;;;;;;12.70;7.30;;;16.40;99.90;;;;;;5093582;28;20526;-71
2022/10/18 00:44:27;;;;;;;18.00;7.83;;;16.30;99.90;;;;;;5098937;28;20516;-71
2022/10/18 00:46:57;;;;;;;23.23;7.80;;;16.30;99.90;;;;;;5109000;28;20417;-72
2022/10/18 00:49:31;;;;;;;24.33;8.43;;;16.30;99.90;;;;;;5093455;28;20937;-71
2022/10/18 00:52:01;;;;;;;15.67;8.00;;;16.30;99.90;;;;;;5092822;28;20438;-71
2022/10/18 00:54:29;;;;;;;15.80;6.73;;;16.30;99.90;;;;;;5101587;28;20425;-71
2022/10/18 00:56:56;;;;;;;19.37;8.20;;;16.30;99.90;;;;;;5103060;28;20426;-71
2022/10/18 00:59:25;;;;;;;17.90;7.50;;;16.30;99.90;;;;;;5105085;28;20450;-71
2022/10/18 01:01:52;;;;;;;19.30;7.50;;;16.20;99.90;;;;;;5109837;28;20457;-72
2022/10/18 01:04:20;;;;;;;11.27;7.37;;;16.30;99.90;;;;;;5112775;28;20455;-72
2022/10/18 01:06:56;;;;;;;17.17;7.70;;;16.30;99.90;;;;;;5104898;28;20426;-72
2022/10/18 01:09:31;;;;;;;17.37;7.67;;;16.30;99.90;;;;;;5093189;28;20434;-72
2022/10/18 01:12:11;;;;;;;22.83;8.30;;;16.30;99.90;;;;;;5092920;28;20467;-71
2022/10/18 01:14:47;;;;;;;15.13;7.87;;;16.20;99.90;;;;;;5106894;28;20476;-71
2022/10/18 01:17:18;;;;;;;32.80;9.57;;;16.20;99.90;;;;;;5111605;28;20500;-71
2022/10/18 01:20:02;;;;;;;9.37;7.07;;;16.20;99.90;;;;;;5113419;28;20423;-71
2022/10/18 01:22:34;;;;;;;15.10;8.20;;;16.20;99.90;;;;;;5102113;28;20486;-72
2022/10/18 01:25:19;;;;;;;19.47;8.67;;;16.20;99.90;;;;;;5096098;28;20426;-71
2022/10/18 01:27:52;;;;;;;19.90;8.20;;;16.20;99.90;;;;;;5098222;28;20446;-71
2022/10/18 01:30:36;;;;;;;15.50;8.70;;;16.20;99.90;;;;;;5112335;28;20463;-71
2022/10/18 01:33:09;;;;;;;17.60;9.23;;;16.20;99.90;;;;;;5112588;28;20437;-71
2022/10/18 01:35:40;;;;;;;21.87;9.60;;;16.20;99.90;;;;;;5092873;28;20422;-71
2022/10/18 01:38:11;;;;;;;16.77;8.67;;;16.10;99.90;;;;;;5095904;28;20440;-72
2022/10/18 01:40:41;;;;;;;17.17;8.97;;;16.10;99.90;;;;;;5092410;28;20475;-72
2022/10/18 01:43:10;;;;;;;29.73;9.80;;;16.10;99.90;;;;;;5092551;28;20577;-71
2022/10/18 01:45:38;;;;;;;20.17;10.07;;;16.10;99.90;;;;;;5110442;28;20488;-72
2022/10/18 01:48:06;;;;;;;20.10;10.00;;;16.00;99.90;;;;;;5109485;28;20803;-71
2022/10/18 01:50:34;;;;;;;15.30;9.60;;;16.00;99.90;;;;;;5097349;28;20450;-71
2022/10/18 01:53:01;;;;;;;20.47;9.63;;;16.00;99.90;;;;;;5112887;28;20473;-71
2022/10/18 01:55:42;;;;;;;13.70;9.93;;;16.00;99.90;;;;;;5092749;28;20425;-72
2022/10/18 01:58:18;;;;;;;22.00;9.63;;;16.00;99.90;;;;;;5109389;28;20847;-73
2022/10/18 02:00:52;;;;;;;30.10;11.00;;;16.00;99.90;;;;;;5092152;28;20868;-74
2022/10/18 02:03:22;;;;;;;18.87;9.90;;;16.00;99.90;;;;;;5103084;28;20461;-74
2022/10/18 02:05:56;;;;;;;16.93;10.20;;;16.00;99.90;;;;;;5112615;28;20451;-72
2022/10/18 02:08:28;;;;;;;23.10;9.87;;;16.00;99.90;;;;;;5092270;28;20508;-73
2022/10/18 02:11:00;;;;;;;25.17;10.70;;;16.00;99.90;;;;;;5091471;28;20434;-74
2022/10/18 02:13:32;;;;;;;17.00;10.70;;;16.00;99.90;;;;;;5094089;28;20451;-73
2022/10/18 02:16:06;;;;;;;17.13;11.10;;;16.00;99.90;;;;;;5110376;28;20947;-73
2022/10/18 02:18:36;;;;;;;18.23;10.13;;;15.90;99.90;;;;;;5092096;28;20905;-73
2022/10/18 02:21:05;;;;;;;20.80;11.87;;;15.90;99.90;;;;;;5096984;28;20433;-73
2022/10/18 02:23:33;;;;;;;20.30;9.80;;;15.90;99.90;;;;;;5091679;28;20483;-73
2022/10/18 02:26:00;;;;;;;19.53;11.10;;;15.90;99.90;;;;;;5091475;28;20455;-72
2022/10/18 02:28:27;;;;;;;18.10;10.60;;;15.90;99.90;;;;;;5101546;28;21002;-74
2022/10/18 02:31:03;;;;;;;23.90;11.23;;;15.90;99.90;;;;;;5111294;28;20444;-74
2022/10/18 02:33:38;;;;;;;17.20;11.07;;;15.80;99.90;;;;;;5111138;28;20450;-73
2022/10/18 02:36:10;;;;;;;20.13;9.90;;;15.80;99.90;;;;;;5111013;28;20432;-74
2022/10/18 02:38:40;;;;;;;18.97;9.73;;;15.80;99.90;;;;;;5103281;28;20873;-73
2022/10/18 02:41:06;;;;;;;20.47;10.30;;;15.80;99.90;;;;;;5111537;28;20450;-73
2022/10/18 02:43:34;;;;;;;17.23;10.17;;;15.80;99.90;;;;;;5106611;28;21030;-73
2022/10/18 02:46:02;;;;;;;13.53;10.07;;;15.80;99.90;;;;;;5097635;28;20447;-72
2022/10/18 02:48:29;;;;;;;15.03;10.23;;;15.80;99.90;;;;;;5099580;28;20807;-73
2022/10/18 02:50:56;;;;;;;17.20;10.90;;;15.80;99.90;;;;;;5091369;28;20483;-73
2022/10/18 02:53:23;;;;;;;16.73;10.40;;;15.90;99.90;;;;;;5094808;28;20486;-72
2022/10/18 02:55:49;;;;;;;19.03;10.47;;;15.80;99.90;;;;;;5111534;28;20474;-73
2022/10/18 02:58:16;;;;;;;23.00;10.50;;;15.90;99.90;;;;;;5093105;28;20460;-73
2022/10/18 03:00:43;;;;;;;15.60;10.23;;;15.90;99.90;;;;;;5095359;28;20422;-74
2022/10/18 03:03:10;;;;;;;15.23;10.97;;;15.90;99.90;;;;;;5092867;28;20466;-73
2022/10/18 03:05:37;;;;;;;16.90;11.00;;;15.90;99.90;;;;;;5091647;28;20425;-73
2022/10/18 03:08:04;;;;;;;16.97;10.60;;;15.90;99.90;;;;;;5091321;28;20433;-72
2022/10/18 03:10:31;;;;;;;17.73;10.60;;;16.00;99.90;;;;;;5095456;28;20481;-73
2022/10/18 03:12:57;;;;;;;17.53;11.00;;;16.00;99.90;;;;;;5092537;28;20444;-72
2022/10/18 03:15:24;;;;;;;15.60;7.73;;;16.00;99.90;;;;;;5095057;28;20796;-71
2022/10/18 03:17:51;;;;;;;10.90;7.10;;;16.00;99.90;;;;;;5095632;28;20426;-72
2022/10/18 03:20:19;;;;;;;14.17;8.30;;;16.00;99.90;;;;;;5105215;28;20496;-73
2022/10/18 03:22:46;;;;;;;11.23;9.27;;;16.00;99.90;;;;;;5113290;28;20477;-73
2022/10/18 03:25:12;;;;;;;14.80;8.23;;;16.00;99.90;;;;;;5115856;28;20474;-74
2022/10/18 03:27:39;;;;;;;21.17;8.50;;;16.00;99.90;;;;;;5110597;28;20512;-74
2022/10/18 03:30:07;;;;;;;12.60;7.07;;;16.00;99.90;;;;;;5102671;28;20491;-73
2022/10/18 03:32:34;;;;;;;13.40;7.47;;;16.00;99.90;;;;;;5094979;28;20477;-74
2022/10/18 03:35:00;;;;;;;18.30;8.10;;;16.00;99.90;;;;;;5095405;28;20808;-73
2022/10/18 03:37:28;;;;;;;10.00;7.30;;;16.00;99.90;;;;;;5099907;28;20433;-73
2022/10/18 03:39:55;;;;;;;9.10;7.67;;;16.00;99.90;;;;;;5105349;28;20425;-74
2022/10/18 03:42:22;;;;;;;12.00;8.83;;;16.00;99.90;;;;;;5114634;28;20478;-74
2022/10/18 03:44:48;;;;;;;14.33;7.80;;;16.00;99.90;;;;;;5115520;28;20420;-72
2022/10/18 03:47:15;;;;;;;12.10;7.60;;;16.10;99.90;;;;;;5108702;28;20429;-72
2022/10/18 03:49:42;;;;;;;11.17;8.00;;;16.00;99.90;;;;;;5102978;28;20766;-73
2022/10/18 03:52:09;;;;;;;12.23;7.57;;;16.00;99.90;;;;;;5109491;28;20446;-73
2022/10/18 03:54:37;;;;;;;13.03;7.80;;;16.10;99.90;;;;;;5106348;28;20425;-74
2022/10/18 03:57:03;;;;;;;10.50;7.30;;;16.00;99.90;;;;;;5114214;28;20503;-74
2022/10/18 03:59:30;;;;;;;9.77;6.83;;;16.10;99.90;;;;;;5111128;28;20426;-73
2022/10/18 04:01:57;;;;;;;9.23;6.83;;;16.10;99.90;;;;;;5108752;28;20467;-73
2022/10/18 04:04:24;;;;;;;8.23;6.37;;;16.10;99.90;;;;;;5100461;28;20902;-74
2022/10/18 04:06:50;;;;;;;9.07;6.80;;;16.10;99.90;;;;;;5095506;28;20520;-74
2022/10/18 04:09:17;;;;;;;14.53;8.00;;;16.10;99.90;;;;;;5109624;28;20429;-73
2022/10/18 04:11:45;;;;;;;10.17;8.07;;;16.10;99.90;;;;;;5092992;28;20470;-74
2022/10/18 04:14:12;;;;;;;15.40;8.30;;;16.00;99.90;;;;;;5094266;28;20419;-74
2022/10/18 04:16:38;;;;;;;14.43;8.20;;;16.00;99.90;;;;;;5094111;28;20447;-74
2022/10/18 04:19:05;;;;;;;18.80;9.50;;;16.00;99.90;;;;;;5096741;28;21014;-74
2022/10/18 04:21:32;;;;;;;17.13;9.70;;;16.00;99.90;;;;;;5099390;28;20462;-74
2022/10/18 04:23:58;;;;;;;15.83;10.33;;;16.00;99.90;;;;;;5103438;28;20460;-74
2022/10/18 04:26:25;;;;;;;14.83;10.70;;;16.00;99.90;;;;;;5113300;27;20447;-74
2022/10/18 04:28:53;;;;;;;22.63;12.03;;;16.00;99.90;;;;;;5113576;28;20529;-74
2022/10/18 04:31:20;;;;;;;18.00;12.40;;;16.10;99.90;;;;;;5093543;28;20475;-74
2022/10/18 04:33:46;;;;;;;20.30;11.30;;;16.00;99.90;;;;;;5093815;28;20418;-74
2022/10/18 04:36:13;;;;;;;24.90;12.27;;;16.00;99.90;;;;;;5092914;28;20437;-74
2022/10/18 04:38:40;;;;;;;17.43;11.80;;;16.00;99.90;;;;;;5108673;28;20422;-74
2022/10/18 04:41:07;;;;;;;17.73;12.00;;;16.00;99.90;;;;;;5111396;28;20443;-74
2022/10/18 04:43:33;;;;;;;13.13;10.63;;;16.10;99.90;;;;;;5113491;28;20460;-75
2022/10/18 04:46:02;;;;;;;17.80;12.13;;;16.10;99.90;;;;;;5114189;28;20425;-74
2022/10/18 04:48:28;;;;;;;16.60;12.07;;;16.10;99.90;;;;;;5112654;28;20422;-75
2022/10/18 04:50:55;;;;;;;15.40;11.70;;;16.00;99.90;;;;;;5093468;28;20433;-75
2022/10/18 04:53:22;;;;;;;17.43;11.17;;;16.10;99.90;;;;;;5093339;28;20438;-74
2022/10/18 04:55:49;;;;;;;14.97;11.13;;;16.10;99.90;;;;;;5093641;28;20429;-74
2022/10/18 04:58:17;;;;;;;17.10;11.43;;;16.10;99.90;;;;;;5093597;28;20468;-74
2022/10/18 05:00:43;;;;;;;14.07;11.70;;;16.10;99.90;;;;;;5095829;28;20434;-74
2022/10/18 05:03:13;;;;;;;14.73;10.50;;;16.10;99.90;;;;;;5107123;28;20462;-74
2022/10/18 05:05:40;;;;;;;22.23;11.60;;;16.10;99.90;;;;;;5102822;28;20863;-74
2022/10/18 05:08:07;;;;;;;17.50;11.27;;;16.10;99.90;;;;;;5113551;28;20450;-74
2022/10/18 05:10:34;;;;;;;15.50;10.97;;;16.20;99.90;;;;;;5113659;28;20447;-74
2022/10/18 05:13:00;;;;;;;18.13;9.50;;;16.10;99.90;;;;;;5113668;28;20487;-74
2022/10/18 05:15:27;;;;;;;14.00;8.97;;;16.10;99.90;;;;;;5110282;28;20433;-74
2022/10/18 05:17:54;;;;;;;12.17;8.57;;;16.10;99.90;;;;;;5108808;28;20462;-74
2022/10/18 05:20:22;;;;;;;9.20;7.67;;;16.10;99.90;;;;;;5109053;27;20929;-74
2022/10/18 05:22:48;;;;;;;10.53;8.33;;;16.10;99.90;;;;;;5108794;28;21012;-74
2022/10/18 05:25:15;;;;;;;8.67;7.40;;;16.10;99.90;;;;;;5109564;28;20426;-74
2022/10/18 05:27:42;;;;;;;8.63;7.73;;;16.10;99.90;;;;;;5109888;28;20454;-74
2022/10/18 05:30:09;;;;;;;9.80;8.10;;;16.10;99.90;;;;;;5108747;28;20481;-73
2022/10/18 05:32:36;;;;;;;9.37;7.43;;;16.10;99.90;;;;;;5109176;28;20859;-74
2022/10/18 05:35:03;;;;;;;8.50;6.70;;;16.10;99.90;;;;;;5109044;28;20425;-75
2022/10/18 05:37:31;;;;;;;9.90;7.30;;;16.10;99.90;;;;;;5109410;28;20443;-75
2022/10/18 05:39:57;;;;;;;8.67;7.53;;;16.10;99.90;;;;;;5109400;28;20421;-74
2022/10/18 05:42:24;;;;;;;8.80;7.90;;;16.10;99.90;;;;;;5109088;28;20437;-74
2022/10/18 05:44:51;;;;;;;9.13;8.23;;;16.10;99.90;;;;;;5108774;28;20526;-74
2022/10/18 05:47:17;;;;;;;9.90;7.60;;;16.10;99.90;;;;;;5109212;28;20429;-74
2022/10/18 05:49:44;;;;;;;11.43;7.90;;;16.10;99.90;;;;;;5108817;28;20425;-74
2022/10/18 05:52:10;;;;;;;12.10;8.60;;;16.10;99.90;;;;;;5108943;28;20522;-74
2022/10/18 05:54:38;;;;;;;9.67;8.30;;;16.10;99.90;;;;;;5108570;28;20421;-74
2022/10/18 05:57:05;;;;;;;17.70;8.87;;;16.10;99.90;;;;;;5108928;28;20426;-74
2022/10/18 05:59:32;;;;;;;14.37;10.03;;;16.10;99.90;;;;;;5108638;28;21503;-74
2022/10/18 06:01:58;;;;;;;15.20;12.53;;;16.20;99.90;;;;;;5107349;28;21011;-75
2022/10/18 06:04:25;;;;;;;20.50;13.17;;;16.10;99.90;;;;;;5108596;28;20534;-75
2022/10/18 06:06:52;;;;;;;16.60;13.13;;;16.10;99.90;;;;;;5108904;28;20428;-75
2022/10/18 06:09:19;;;;;;;17.73;12.63;;;16.20;99.90;;;;;;5108913;28;20433;-75
2022/10/18 06:11:47;;;;;;;18.73;12.60;;;16.20;99.90;;;;;;5108272;28;20523;-75
2022/10/18 06:14:14;;;;;;;17.27;12.43;;;16.20;99.90;;;;;;5108346;28;20428;-75
2022/10/18 06:16:40;;;;;;;15.63;12.30;;;16.20;99.90;;;;;;5107991;28;20428;-75
2022/10/18 06:19:07;;;;;;;17.73;12.17;;;16.20;99.90;;;;;;5108755;28;20421;-75
2022/10/18 06:21:34;;;;;;;18.63;12.43;;;16.20;99.90;;;;;;5108227;28;20516;-75
2022/10/18 06:24:00;;;;;;;16.90;12.53;;;16.20;99.90;;;;;;5108870;28;20486;-75
2022/10/18 06:26:28;;;;;;;18.33;11.90;;;16.20;99.90;;;;;;5108351;28;21201;-75
2022/10/18 06:28:56;;;;;;;16.43;11.23;;;16.20;99.90;;;;;;5108519;28;20430;-75
2022/10/18 06:31:23;;;;;;;13.37;10.43;;;16.20;99.90;;;;;;5107384;28;20481;-76
2022/10/18 06:33:49;;;;;;;12.67;9.30;;;16.20;99.90;;;;;;5108976;28;20421;-75
2022/10/18 06:36:18;;;;;;;11.00;8.63;;;16.20;99.90;;;;;;5108284;28;20947;-76
2022/10/18 06:38:45;;;;;;;12.43;9.83;;;16.20;99.90;;;;;;5108184;28;20443;-76
2022/10/18 06:41:11;;;;;;;13.50;9.70;;;16.20;99.90;;;;;;5107842;28;20456;-76
2022/10/18 06:43:38;;;;;;;14.43;10.93;;;16.20;99.90;;;;;;5108376;28;20490;-75
2022/10/18 06:46:08;;;;;;;18.40;10.73;;;16.20;99.90;;;;;;5107976;28;20452;-76
2022/10/18 06:48:35;;;;;;;18.47;11.07;;;16.20;99.90;;;;;;5107246;28;20911;-78
2022/10/18 06:51:03;;;;;;;13.40;11.00;;;16.30;99.90;;;;;;5107484;28;20425;-78
2022/10/18 06:53:32;;;;;;;14.83;10.60;;;16.30;99.90;;;;;;5107991;28;20425;-78
2022/10/18 06:55:59;;;;;;;18.00;11.67;;;16.30;99.90;;;;;;5108313;28;20433;-78
2022/10/18 06:58:26;;;;;;;16.03;11.87;;;16.30;99.90;;;;;;5107976;28;20496;-78
2022/10/18 07:00:53;;;;;;;18.07;12.47;;;16.30;99.90;;;;;;5108285;28;20499;-78
2022/10/18 07:03:21;;;;;;;18.73;11.83;;;16.30;99.90;;;;;;5108244;28;20445;-78
2022/10/18 07:05:48;;;;;;;17.60;11.60;;;16.40;99.90;;;;;;5108491;28;20483;-78
2022/10/18 07:08:15;;;;;;;19.57;13.57;;;16.40;99.90;;;;;;5108340;28;20858;-78
2022/10/18 07:10:41;;;;;;;18.00;12.67;;;16.40;99.90;;;;;;5106560;28;20433;-78
2022/10/18 07:13:08;;;;;;;16.20;11.80;;;16.40;99.90;;;;;;5106119;28;20441;-77
2022/10/18 07:15:37;;;;;;;19.30;12.90;;;16.40;99.90;;;;;;5106831;28;20881;-77
2022/10/18 07:18:04;;;;;;;15.13;11.60;;;16.40;99.90;;;;;;5106305;28;21016;-78
2022/10/18 07:20:32;;;;;;;13.97;10.77;;;16.50;99.90;;;;;;5106767;28;20482;-77
2022/10/18 07:22:59;;;;;;;15.30;10.03;;;16.50;99.90;;;;;;5106803;28;20448;-77
2022/10/18 07:25:25;;;;;;;13.60;11.00;;;16.50;99.90;;;;;;5107731;28;20528;-77
2022/10/18 07:27:52;;;;;;;12.43;9.80;;;16.50;99.90;;;;;;5108061;28;20421;-77
2022/10/18 07:30:19;;;;;;;12.93;8.70;;;16.50;99.90;;;;;;5106913;28;20437;-77
2022/10/18 07:32:46;;;;;;;9.43;7.80;;;16.50;99.90;;;;;;5107186;28;20445;-77
2022/10/18 07:35:13;;;;;;;8.83;7.30;;;16.50;99.90;;;;;;5108007;28;20426;-77
2022/10/18 07:37:41;;;;;;;8.60;6.97;;;16.50;99.90;;;;;;5107117;28;20429;-78
2022/10/18 07:40:10;;;;;;;10.90;7.90;;;16.50;99.90;;;;;;5106273;28;20433;-77
2022/10/18 07:42:36;;;;;;;10.63;7.43;;;16.50;99.90;;;;;;5106189;28;21009;-77
2022/10/18 07:45:04;;;;;;;6.30;5.70;;;16.50;99.90;;;;;;5107114;28;20862;-77
2022/10/18 07:47:31;;;;;;;8.63;5.20;;;16.50;99.90;;;;;;5107146;28;20428;-77
2022/10/18 07:49:57;;;;;;;7.70;4.60;;;16.40;99.90;;;;;;5107192;28;20417;-77
2022/10/18 07:52:24;;;;;;;4.60;4.20;;;16.40;99.90;;;;;;5106702;28;20527;-77
2022/10/18 07:54:52;;;;;;;6.03;4.70;;;16.30;99.90;;;;;;5107125;28;21011;-77
2022/10/18 07:57:19;;;;;;;4.90;4.50;;;16.30;99.90;;;;;;5107635;28;20421;-77
2022/10/18 07:59:47;;;;;;;6.23;4.40;;;16.30;99.90;;;;;;5107198;28;20870;-77
2022/10/18 08:02:13;;;;;;;7.23;4.40;;;16.30;99.90;;;;;;5110014;28;20452;-77
2022/10/18 08:04:40;;;;;;;8.00;4.27;;;16.20;99.90;;;;;;5111009;28;20506;-77
2022/10/18 08:07:07;;;;;;;5.03;4.53;;;16.30;99.90;;;;;;5110891;28;20413;-77
2022/10/18 08:09:33;;;;;;;5.17;3.53;;;16.30;99.90;;;;;;5111381;28;20447;-77
2022/10/18 08:12:01;;;;;;;6.37;3.90;;;16.30;99.90;;;;;;5111070;28;20445;-77
2022/10/18 08:14:28;;;;;;;5.40;3.30;;;16.40;99.90;;;;;;5110858;28;20429;-77
2022/10/18 08:16:55;;;;;;;4.90;3.27;;;16.40;99.90;;;;;;5110684;28;20417;-77
2022/10/18 08:19:22;;;;;;;3.27;3.07;;;16.40;99.90;;;;;;5110489;28;20927;-77
2022/10/18 08:21:49;;;;;;;3.83;3.40;;;16.40;99.90;;;;;;5110519;28;20466;-77
2022/10/18 08:24:15;;;;;;;10.53;3.10;;;16.50;99.90;;;;;;5110852;28;20461;-77
2022/10/18 08:26:42;;;;;;;3.60;3.30;;;16.40;99.90;;;;;;5110963;28;20409;-78
2022/10/18 08:29:11;;;;;;;5.10;4.00;;;16.50;99.90;;;;;;5110437;28;20417;-77
2022/10/18 08:31:38;;;;;;;4.67;3.60;;;16.50;99.90;;;;;;5108587;27;20489;-77
2022/10/18 08:34:04;;;;;;;5.67;3.40;;;16.50;99.90;;;;;;5108793;28;20976;-77
2022/10/18 08:36:31;;;;;;;5.67;3.70;;;16.50;99.90;;;;;;5109938;28;20505;-77
2022/10/18 08:38:58;;;;;;;4.07;3.67;;;16.40;99.90;;;;;;5110162;28;20433;-77
2022/10/18 08:41:42;;;;;;;4.80;3.37;;;16.40;99.90;;;;;;5110110;28;20586;-77
2022/10/18 08:44:17;;;;;;;4.70;4.30;;;16.40;99.90;;;;;;5109969;28;20478;-77
2022/10/18 08:46:46;;;;;;;4.37;3.90;;;16.40;99.90;;;;;;5109987;28;20421;-77
2022/10/18 08:49:22;;;;;;;3.50;3.17;;;16.50;99.90;;;;;;5110134;28;20511;-76
2022/10/18 08:51:51;;;;;;;3.97;3.10;;;16.50;99.90;;;;;;5110068;28;20515;-77
2022/10/18 08:54:25;;;;;;;3.60;3.30;;;16.50;99.90;;;;;;5109769;28;20478;-77
2022/10/18 08:56:58;;;;;;;3.43;3.13;;;16.60;99.90;;;;;;5110340;28;20433;-78
2022/10/18 08:59:33;;;;;;;4.50;2.87;;;16.60;99.90;;;;;;5110251;28;20458;-78
2022/10/18 09:02:10;;;;;;;3.40;3.13;;;16.60;99.90;;;;;;5109718;28;20525;-77
2022/10/18 09:04:45;;;;;;;3.30;3.00;;;16.70;99.90;;;;;;5109351;28;20453;-78
2022/10/18 09:07:35;;;;;;;5.87;3.13;;;16.70;99.90;;;;;;5109404;28;20429;-78
2022/10/18 09:10:08;;;;;;;2.83;2.63;;;16.90;99.90;;;;;;5109605;28;20533;-76
2022/10/18 09:12:50;;;;;;;2.83;2.63;;;17.00;99.90;;;;;;5108990;28;20437;-76
2022/10/18 09:15:25;;;;;;;2.60;2.40;;;17.10;99.90;;;;;;5109333;28;20765;-76
2022/10/18 09:18:07;;;;;;;4.47;2.43;;;17.10;99.90;;;;;;5107440;27;20444;-76
2022/10/18 09:20:44;;;;;;;3.40;2.30;;;17.20;99.90;;;;;;5109693;27;20429;-76
2022/10/18 09:23:18;;;;;;;5.90;2.90;;;17.30;99.90;;;;;;5109356;28;21767;-76
2022/10/18 09:25:47;;;;;;;2.50;2.30;;;17.40;99.90;;;;;;5109406;28;20951;-77
2022/10/18 09:28:27;;;;;;;2.73;1.90;;;17.60;99.90;;;;;;5109380;28;20429;-76
2022/10/18 09:31:01;;;;;;;2.30;2.20;;;17.70;99.90;;;;;;5108773;28;20440;-76
2022/10/18 09:33:37;;;;;;;3.63;2.00;;;17.70;99.90;;;;;;5109006;28;20428;-76
2022/10/18 09:36:07;;;;;;;5.17;2.17;;;17.80;99.90;;;;;;5109432;28;20419;-76
2022/10/18 09:38:44;;;;;;;2.23;2.00;;;17.90;99.90;;;;;;5108662;28;20410;-77
2022/10/18 09:41:18;;;;;;;2.07;1.87;;;18.00;99.90;;;;;;5108954;28;20888;-81
2022/10/18 09:43:54;;;;;;;3.67;1.80;;;18.00;99.90;;;;;;5109404;28;20445;-76
2022/10/18 09:46:27;;;;;;;2.50;2.30;;;17.90;99.90;;;;;;5109260;28;20413;-76
2022/10/18 09:48:59;;;;;;;2.90;2.70;;;17.90;99.90;;;;;;5109044;28;20451;-76
2022/10/18 09:51:30;;;;;;;2.30;2.10;;;17.90;99.90;;;;;;5108057;28;20464;-76
2022/10/18 09:54:05;;;;;;;2.00;1.73;;;17.90;99.90;;;;;;5109317;28;20413;-77
2022/10/18 09:56:37;;;;;;;1.70;1.60;;;17.90;99.90;;;;;;5109316;28;20415;-77
2022/10/18 09:59:04;;;;;;;2.43;1.90;;;18.00;99.90;;;;;;5108513;28;21167;-77
2022/10/18 10:01:33;;;;;;;1.57;1.47;;;18.00;99.90;;;;;;5107685;28;20972;-77
2022/10/18 10:03:59;;;;;;;3.00;1.70;;;18.10;99.90;;;;;;5108693;28;20463;-77
2022/10/18 10:06:28;;;;;;;1.60;1.50;;;18.10;99.90;;;;;;5108546;28;20455;-77
2022/10/18 10:08:59;;;;;;;1.87;1.77;;;18.10;99.90;;;;;;5108363;28;20417;-77
2022/10/18 10:11:32;;;;;;;2.90;1.63;;;18.20;99.90;;;;;;5108419;28;20469;-77
2022/10/18 10:14:07;;;;;;;2.23;2.07;;;18.20;99.90;;;;;;5109015;27;20490;-77
2022/10/18 10:16:44;;;;;;;2.23;2.03;;;18.10;99.90;;;;;;5108860;28;20420;-77
2022/10/18 10:19:17;;;;;;;2.17;1.97;;;18.10;99.90;;;;;;5107981;28;20447;-77
2022/10/18 10:21:44;;;;;;;2.47;2.10;;;18.10;99.90;;;;;;5107908;28;20444;-77
2022/10/18 10:24:20;;;;;;;3.50;2.10;;;18.20;99.90;;;;;;5108040;28;20450;-77
2022/10/18 10:26:47;;;;;;;2.50;2.30;;;18.40;99.90;;;;;;5108388;28;20424;-77
2022/10/18 10:29:47;;;;;;;2.03;1.90;;;18.50;99.90;;;;;;5108353;28;20477;-77
2022/10/18 10:32:16;;;;;;;1.50;1.40;;;18.60;99.90;;;;;;5107868;28;20441;-77
2022/10/18 10:34:44;;;;;;;8.13;1.97;;;18.70;99.90;;;;;;5108598;28;20418;-77
2022/10/18 10:37:25;;;;;;;3.83;1.87;;;18.80;99.90;;;;;;5107528;28;20448;-77
2022/10/18 10:40:12;;;;;;;2.27;1.73;;;18.80;99.90;;;;;;5108478;28;20450;-77
2022/10/18 10:42:57;;;;;;;6.43;1.37;;;18.80;99.90;;;;;;5107705;28;20483;-77
2022/10/18 10:45:26;;;;;;;2.10;2.00;;;18.90;99.90;;;;;;5107958;28;20474;-77
2022/10/18 10:48:01;;;;;;;2.37;1.60;;;18.90;99.90;;;;;;5108313;28;20425;-77
2022/10/18 10:50:29;;;;;;;3.23;1.30;;;18.80;99.90;;;;;;5107705;28;20436;-77
2022/10/18 10:52:56;;;;;;;1.60;1.50;;;18.80;99.90;;;;;;5107953;28;20433;-77
2022/10/18 10:55:27;;;;;;;3.67;1.40;;;18.80;99.90;;;;;;5108358;28;20955;-76
2022/10/18 10:57:55;;;;;;;3.20;1.80;;;18.80;99.90;;;;;;5107680;28;20455;-73
2022/10/18 11:00:40;;;;;;;3.57;1.40;;;18.80;99.90;;;;;;5107269;28;20441;-73
2022/10/18 11:03:13;;;;;;;3.80;1.20;;;18.80;99.90;;;;;;5107462;28;20903;-76
2022/10/18 11:05:45;;;;;;;1.53;1.10;;;19.00;99.90;;;;;;5107974;28;21587;-73
2022/10/18 11:08:15;;;;;;;1.20;1.10;;;19.00;99.90;;;;;;5107535;28;20459;-72
2022/10/18 11:10:52;;;;;;;1.47;1.03;;;18.90;99.90;;;;;;5106964;28;20443;-73
2022/10/18 11:13:28;;;;;;;1.37;1.20;;;18.90;99.90;;;;;;5107204;28;20455;-73
2022/10/18 11:16:00;;;;;;;1.80;1.10;;;18.90;99.90;;;;;;5108404;28;20421;-72
2022/10/18 11:18:32;;;;;;;1.67;1.33;;;18.90;99.90;;;;;;5107383;28;20525;-72
2022/10/18 11:21:06;;;;;;;3.93;1.40;;;18.80;99.90;;;;;;5107277;28;20451;-72
2022/10/18 11:23:35;;;;;;;1.50;1.40;;;18.80;99.90;;;;;;5107947;28;20432;-73
2022/10/18 11:26:22;;;;;;;6.20;1.63;;;18.70;99.90;;;;;;5108039;28;20485;-72
2022/10/18 11:29:05;;;;;;;3.30;1.40;;;18.60;99.90;;;;;;5107460;28;20511;-72
2022/10/18 11:31:41;;;;;;;6.40;1.70;;;18.50;99.90;;;;;;5107021;28;21060;-73
2022/10/18 11:34:32;;;;;;;7.30;2.07;;;18.40;99.90;;;;;;5107994;28;20465;-73
2022/10/18 11:37:09;;;;;;;2.07;1.87;;;18.30;99.90;;;;;;5111665;28;20867;-73
2022/10/18 11:39:47;;;;;;;2.67;1.77;;;18.30;99.90;;;;;;5111135;28;20463;-73
2022/10/18 11:42:23;;;;;;;1.90;1.80;;;18.30;99.90;;;;;;5111182;28;20470;-72
2022/10/18 11:45:01;;;;;;;2.53;2.17;;;18.30;99.90;;;;;;5111640;28;20461;-72
2022/10/18 11:47:38;;;;;;;3.60;2.90;;;18.40;99.90;;;;;;5111325;28;20962;-73
2022/10/18 11:50:17;;;;;;;3.50;2.50;;;18.40;99.90;;;;;;5111180;28;20474;-72
2022/10/18 11:52:53;;;;;;;3.07;2.73;;;18.40;99.90;;;;;;5111046;28;20471;-73
2022/10/18 11:55:32;;;;;;;2.77;2.53;;;18.50;99.90;;;;;;5111468;28;20432;-72
2022/10/18 11:58:07;;;;;;;3.30;2.40;;;18.60;99.90;;;;;;5110901;28;21131;-72
2022/10/18 12:00:43;;;;;;;2.80;2.20;;;18.70;99.90;;;;;;5109986;27;20459;-73
2022/10/18 12:03:22;;;;;;;7.00;2.90;;;18.70;99.90;;;;;;5110555;28;20449;-73
2022/10/18 12:05:51;;;;;;;5.50;3.90;;;18.80;99.90;;;;;;5111289;28;20478;-72
2022/10/18 12:08:25;;;;;;;5.70;3.77;;;18.90;99.90;;;;;;5110683;28;20454;-73
2022/10/18 12:10:56;;;;;;;5.73;3.07;;;18.90;99.90;;;;;;5110377;28;20446;-73
2022/10/18 12:13:29;;;;;;;3.10;2.73;;;19.10;99.90;;;;;;5111087;28;20447;-72
2022/10/18 12:15:56;;;;;;;5.93;3.40;;;19.50;99.90;;;;;;5111238;28;20442;-73
2022/10/18 12:18:25;;;;;;;2.00;1.90;;;20.20;99.90;;;;;;5110543;28;20446;-73
2022/10/18 12:20:56;;;;;;;2.07;1.83;;;20.80;99.90;;;;;;5110041;28;20453;-73
2022/10/18 12:23:36;;;;;;;3.60;2.20;;;21.50;99.90;;;;;;5110709;28;20455;-73
2022/10/18 12:26:05;;;;;;;8.40;2.00;;;22.00;99.90;;;;;;5110718;28;20478;-73
2022/10/18 12:28:42;;;;;;;2.07;1.97;;;21.90;99.90;;;;;;5110236;28;20956;-73
2022/10/18 12:31:20;;;;;;;4.63;2.20;;;21.50;99.90;;;;;;5110153;28;20563;-73
2022/10/18 12:33:51;;;;;;;2.50;2.30;;;21.00;99.90;;;;;;5110470;28;20459;-73
2022/10/18 12:36:45;;;;;;;3.47;2.37;;;20.70;99.90;;;;;;5110226;28;20823;-73
2022/10/18 12:39:19;;;;;;;2.70;2.50;;;20.50;99.90;;;;;;5109952;28;21206;-73
2022/10/18 12:41:47;;;;;;;4.43;2.40;;;20.20;99.90;;;;;;5110364;28;20863;-73
2022/10/18 12:44:20;;;;;;;4.07;2.33;;;19.90;99.90;;;;;;5109709;28;20447;-73
2022/10/18 12:46:51;;;;;;;5.90;2.27;;;19.70;99.90;;;;;;5109035;28;20490;-75
2022/10/18 12:49:24;;;;;;;4.40;2.17;;;19.80;99.90;;;;;;5109629;28;20450;-73
2022/10/18 12:51:53;;;;;;;3.20;2.40;;;20.10;99.90;;;;;;5109966;28;20454;-76
2022/10/18 12:54:25;;;;;;;2.83;2.37;;;20.50;99.90;;;;;;5110156;28;20810;-75